Time;durP1;ratioP1;P1;durP2;ratioP2;P2;SDS_P1;SDS_P2;PMS_P1;PMS_P2;Temp;Humidity;BMP_temperature;BMP_pressure;BME280_temperature;BME280_humidity;BME280_pressure;Samples;Min_cycle;Max_cycle;Signal;HPM_P1;HPM_P2
2023/05/25 00:02:35;;;;;;;12.10;4.60;;;;;;;;;;10496065;28;20024;-71
2023/05/25 00:07:36;;;;;;;5.68;4.07;;;;;;;;;;10494537;28;20464;-72
2023/05/25 00:12:37;;;;;;;8.00;4.22;;;;;;;;;;10491700;28;20032;-71
2023/05/25 00:17:37;;;;;;;6.07;4.03;;;;;;;;;;10491486;28;20085;-70
2023/05/25 00:22:38;;;;;;;6.63;4.20;;;;;;;;;;10491979;28;20494;-71
2023/05/25 00:27:38;;;;;;;10.45;4.47;;;;;;;;;;10493647;28;20492;-71
2023/05/25 00:32:39;;;;;;;6.50;4.45;;;;;;;;;;10494094;28;20568;-71
2023/05/25 00:37:40;;;;;;;5.82;4.22;;;;;;;;;;10486590;28;20405;-71
2023/05/25 00:42:40;;;;;;;5.65;4.03;;;;;;;;;;10489206;28;20387;-71
2023/05/25 00:47:42;;;;;;;8.23;3.97;;;;;;;;;;10474703;28;20283;-70
2023/05/25 00:52:42;;;;;;;6.57;4.07;;;;;;;;;;10475056;28;20051;-70
2023/05/25 00:57:44;;;;;;;5.10;3.70;;;;;;;;;;10490924;28;20028;-70
2023/05/25 01:02:45;;;;;;;5.22;3.53;;;;;;;;;;10491080;28;20028;-70
2023/05/25 01:07:46;;;;;;;5.72;4.07;;;;;;;;;;10490929;28;20029;-72
2023/05/25 01:12:50;;;;;;;10.27;3.70;;;;;;;;;;10492334;28;20036;-71
2023/05/25 01:17:52;;;;;;;8.25;4.07;;;;;;;;;;10460502;28;20028;-71
2023/05/25 01:22:56;;;;;;;4.18;3.65;;;;;;;;;;10488712;28;20467;-68
2023/05/25 01:28:00;;;;;;;8.05;3.75;;;;;;;;;;10490228;28;20496;-67
2023/05/25 01:33:01;;;;;;;5.32;4.15;;;;;;;;;;10479228;28;20032;-68
2023/05/25 01:38:02;;;;;;;4.72;4.07;;;;;;;;;;10479921;28;20032;-69
2023/05/25 01:43:02;;;;;;;6.60;4.07;;;;;;;;;;10481714;28;20052;-70
2023/05/25 01:48:27;;;;;;;6.75;4.47;;;;;;;;;;10488771;28;21022;-69
2023/05/25 01:53:35;;;;;;;8.63;4.00;;;;;;;;;;10458025;28;20478;-71
2023/05/25 01:58:38;;;;;;;5.75;4.03;;;;;;;;;;10477018;28;20039;-67
2023/05/25 02:03:40;;;;;;;6.78;4.20;;;;;;;;;;10458880;28;20036;-68
2023/05/25 02:08:40;;;;;;;7.28;4.00;;;;;;;;;;10456665;28;20143;-67
2023/05/25 02:13:41;;;;;;;8.10;3.72;;;;;;;;;;10484288;28;20058;-71
2023/05/25 02:18:43;;;;;;;5.83;3.73;;;;;;;;;;10488532;28;20059;-69
2023/05/25 02:23:45;;;;;;;5.55;4.20;;;;;;;;;;10487783;28;20466;-72
2023/05/25 02:28:45;;;;;;;4.97;3.83;;;;;;;;;;10487313;28;20029;-68
2023/05/25 02:33:46;;;;;;;5.80;4.63;;;;;;;;;;10477902;28;20487;-72
2023/05/25 02:38:48;;;;;;;4.53;4.10;;;;;;;;;;10487301;28;20491;-71
2023/05/25 02:43:49;;;;;;;6.25;4.95;;;;;;;;;;10442278;28;1120349;-69
2023/05/25 02:48:50;;;;;;;5.30;3.88;;;;;;;;;;10494482;28;20033;-70
2023/05/25 02:53:50;;;;;;;4.63;3.95;;;;;;;;;;10482166;28;20020;-69
2023/05/25 02:58:51;;;;;;;4.82;4.10;;;;;;;;;;10504180;28;20028;-68
2023/05/25 03:03:52;;;;;;;5.05;4.05;;;;;;;;;;10505745;28;20035;-73
2023/05/25 03:08:52;;;;;;;5.57;3.92;;;;;;;;;;10496208;28;20055;-67
2023/05/25 03:13:53;;;;;;;4.90;3.70;;;;;;;;;;10496038;28;20028;-71
2023/05/25 03:18:53;;;;;;;5.73;4.00;;;;;;;;;;10496803;28;20975;-71
2023/05/25 03:23:54;;;;;;;6.65;4.43;;;;;;;;;;10496984;28;20094;-68
2023/05/25 03:28:54;;;;;;;7.40;3.85;;;;;;;;;;10494646;28;20494;-72
2023/05/25 03:33:55;;;;;;;5.10;3.85;;;;;;;;;;10494209;28;20078;-69
2023/05/25 03:38:55;;;;;;;9.87;4.27;;;;;;;;;;10494315;28;20024;-71
2023/05/25 03:43:56;;;;;;;5.32;3.78;;;;;;;;;;10494128;28;20465;-69
2023/05/25 03:48:56;;;;;;;4.57;3.67;;;;;;;;;;10482488;28;20035;-71
2023/05/25 03:53:56;;;;;;;5.80;3.97;;;;;;;;;;10471686;28;20465;-67
2023/05/25 03:58:59;;;;;;;5.60;3.90;;;;;;;;;;10478290;28;20461;-72
2023/05/25 04:03:59;;;;;;;5.97;3.42;;;;;;;;;;10495847;28;20395;-68
2023/05/25 04:09:00;;;;;;;4.40;3.50;;;;;;;;;;10493662;28;20036;-68
2023/05/25 04:14:00;;;;;;;4.95;3.50;;;;;;;;;;10489602;28;20025;-68
2023/05/25 04:19:01;;;;;;;5.13;3.28;;;;;;;;;;10486831;28;20093;-69
2023/05/25 04:24:01;;;;;;;4.90;3.70;;;;;;;;;;10494167;28;20043;-68
2023/05/25 04:29:02;;;;;;;5.87;4.13;;;;;;;;;;10492882;28;21055;-73
2023/05/25 04:34:02;;;;;;;9.60;3.70;;;;;;;;;;10493360;28;20446;-72
2023/05/25 04:39:04;;;;;;;6.32;3.47;;;;;;;;;;10492871;28;20529;-68
2023/05/25 04:44:05;;;;;;;3.63;3.17;;;;;;;;;;10464806;28;20083;-72
2023/05/25 04:49:07;;;;;;;7.10;4.07;;;;;;;;;;10479275;28;20070;-68
2023/05/25 04:54:07;;;;;;;4.03;3.47;;;;;;;;;;10496637;28;20036;-70
2023/05/25 04:59:07;;;;;;;5.70;3.47;;;;;;;;;;10493681;28;20035;-68
2023/05/25 05:04:08;;;;;;;6.63;3.67;;;;;;;;;;10471955;28;20517;-70
2023/05/25 05:09:08;;;;;;;4.85;3.33;;;;;;;;;;10478063;28;20568;-69
2023/05/25 05:14:09;;;;;;;6.38;3.78;;;;;;;;;;10487923;28;20016;-69
2023/05/25 05:19:09;;;;;;;4.93;3.58;;;;;;;;;;10481355;28;20032;-69
2023/05/25 05:24:10;;;;;;;5.57;4.38;;;;;;;;;;10481999;28;20024;-68
2023/05/25 05:29:10;;;;;;;4.88;3.60;;;;;;;;;;10449848;28;20043;-68
2023/05/25 05:34:11;;;;;;;3.85;3.42;;;;;;;;;;10466229;28;20419;-68
2023/05/25 05:39:11;;;;;;;5.90;3.87;;;;;;;;;;10477481;28;20024;-67
2023/05/25 05:44:12;;;;;;;4.10;3.58;;;;;;;;;;10476684;28;20473;-68
2023/05/25 05:49:12;;;;;;;5.00;3.30;;;;;;;;;;10494281;28;20036;-69
2023/05/25 05:54:12;;;;;;;6.40;3.53;;;;;;;;;;10490995;28;20523;-68
2023/05/25 05:59:13;;;;;;;5.73;3.13;;;;;;;;;;10486998;28;20040;-69
2023/05/25 06:04:14;;;;;;;3.75;2.50;;;;;;;;;;10489125;28;20028;-67
2023/05/25 06:09:15;;;;;;;6.20;3.10;;;;;;;;;;10489910;28;20032;-68
2023/05/25 06:14:15;;;;;;;11.45;2.97;;;;;;;;;;10484987;28;20021;-68
2023/05/25 06:19:16;;;;;;;6.05;2.88;;;;;;;;;;10486875;28;20268;-68
2023/05/25 06:24:16;;;;;;;10.37;3.60;;;;;;;;;;10485843;28;20051;-68
2023/05/25 06:29:17;;;;;;;5.50;2.70;;;;;;;;;;10477645;28;20453;-68
2023/05/25 06:34:17;;;;;;;7.32;3.22;;;;;;;;;;10478004;28;20029;-68
2023/05/25 06:39:18;;;;;;;6.47;3.13;;;;;;;;;;10477203;28;20024;-68
2023/05/25 06:44:18;;;;;;;5.00;2.60;;;;;;;;;;10478791;28;20469;-68
2023/05/25 06:49:18;;;;;;;6.87;3.20;;;;;;;;;;10489292;28;20025;-68
2023/05/25 06:54:19;;;;;;;3.27;2.43;;;;;;;;;;10488944;28;20466;-68
2023/05/25 06:59:19;;;;;;;6.40;2.77;;;;;;;;;;10488576;28;20122;-68
2023/05/25 07:04:21;;;;;;;5.55;2.63;;;;;;;;;;10474656;28;20031;-68
2023/05/25 07:09:21;;;;;;;9.30;2.90;;;;;;;;;;10488386;28;20016;-68
2023/05/25 07:14:22;;;;;;;5.17;2.77;;;;;;;;;;10487666;28;20355;-69
2023/05/25 07:19:22;;;;;;;5.03;2.60;;;;;;;;;;10487195;28;20445;-68
2023/05/25 07:24:22;;;;;;;5.30;2.80;;;;;;;;;;10462765;28;20446;-68
2023/05/25 07:29:23;;;;;;;6.23;3.10;;;;;;;;;;10490187;28;20100;-69
2023/05/25 07:34:23;;;;;;;6.63;3.00;;;;;;;;;;10494300;28;20484;-68
2023/05/25 07:39:24;;;;;;;6.13;2.80;;;;;;;;;;10482665;28;20024;-69
2023/05/25 07:44:24;;;;;;;4.23;2.90;;;;;;;;;;10492882;28;20051;-69
2023/05/25 07:49:24;;;;;;;12.20;3.20;;;;;;;;;;10495615;28;20478;-69
2023/05/25 07:54:25;;;;;;;3.00;2.50;;;;;;;;;;10470445;28;20032;-69
2023/05/25 07:59:25;;;;;;;3.00;2.50;;;;;;;;;;10482298;28;20441;-69
2023/05/25 08:04:26;;;;;;;3.10;2.70;;;;;;;;;;10495019;28;20465;-69
2023/05/25 08:09:26;;;;;;;3.13;2.60;;;;;;;;;;10493276;28;20515;-69
2023/05/25 08:14:26;;;;;;;9.53;2.43;;;;;;;;;;10491794;28;20028;-69
2023/05/25 08:19:30;;;;;;;7.37;2.70;;;;;;;;;;10484913;28;20860;-69
2023/05/25 08:24:30;;;;;;;13.05;2.80;;;;;;;;;;10488312;28;20457;-68
2023/05/25 08:29:30;;;;;;;6.37;2.70;;;;;;;;;;10492806;28;20039;-69
2023/05/25 08:34:31;;;;;;;3.13;2.37;;;;;;;;;;10492138;28;20460;-69
2023/05/25 08:39:31;;;;;;;3.17;2.43;;;;;;;;;;10491026;28;20028;-69
2023/05/25 08:44:34;;;;;;;6.67;2.80;;;;;;;;;;10484420;28;20503;-68
2023/05/25 08:49:37;;;;;;;6.05;2.38;;;;;;;;;;10492498;28;20043;-69
2023/05/25 08:54:38;;;;;;;4.50;2.33;;;;;;;;;;10492470;28;20055;-69
2023/05/25 08:59:43;;;;;;;4.18;2.50;;;;;;;;;;10462292;28;20047;-69
2023/05/25 09:04:44;;;;;;;5.53;2.50;;;;;;;;;;10476620;28;20440;-69
2023/05/25 09:09:46;;;;;;;3.20;2.60;;;;;;;;;;10461200;28;20020;-69
2023/05/25 09:14:47;;;;;;;5.55;2.35;;;;;;;;;;10492509;28;20073;-69
2023/05/25 09:19:48;;;;;;;7.18;2.50;;;;;;;;;;10489349;28;20028;-69
2023/05/25 09:24:49;;;;;;;4.32;2.40;;;;;;;;;;10485079;28;20033;-69
2023/05/25 09:29:50;;;;;;;3.25;2.10;;;;;;;;;;10464350;28;20017;-69
2023/05/25 09:34:50;;;;;;;5.85;2.65;;;;;;;;;;10484500;28;20466;-69
2023/05/25 09:39:51;;;;;;;2.97;2.22;;;;;;;;;;10489806;28;20078;-69
2023/05/25 09:44:52;;;;;;;9.40;2.63;;;;;;;;;;10471583;28;20453;-69
2023/05/25 09:49:52;;;;;;;2.80;2.30;;;;;;;;;;10491014;28;20036;-68
2023/05/25 09:54:55;;;;;;;7.50;2.42;;;;;;;;;;10490047;28;20445;-68
2023/05/25 09:59:55;;;;;;;4.07;2.30;;;;;;;;;;10490864;28;20078;-68
2023/05/25 10:04:56;;;;;;;3.78;2.47;;;;;;;;;;10466964;28;20082;-68
2023/05/25 10:09:59;;;;;;;6.35;2.40;;;;;;;;;;10481300;28;20047;-68
2023/05/25 10:15:02;;;;;;;3.65;2.15;;;;;;;;;;10464511;28;20017;-68
2023/05/25 10:20:06;;;;;;;5.25;2.80;;;;;;;;;;10484930;28;20048;-68
2023/05/25 10:25:25;;;;;;;5.28;2.00;;;;;;;;;;10478783;28;20021;-67
2023/05/25 10:30:29;;;;;;;3.15;2.20;;;;;;;;;;10483531;28;20047;-68
2023/05/25 10:35:30;;;;;;;4.95;2.17;;;;;;;;;;10488648;28;20027;-67
2023/05/25 10:40:31;;;;;;;4.40;2.05;;;;;;;;;;10466959;28;20395;-67
2023/05/25 10:45:32;;;;;;;2.17;1.83;;;;;;;;;;10487424;28;20283;-68
2023/05/25 10:50:35;;;;;;;4.55;2.08;;;;;;;;;;10485634;28;20292;-68
2023/05/25 10:55:51;;;;;;;2.00;1.80;;;;;;;;;;10484983;28;20035;-68
2023/05/25 11:01:00;;;;;;;2.65;1.95;;;;;;;;;;10486626;28;20471;-67
2023/05/25 11:06:01;;;;;;;2.00;1.83;;;;;;;;;;10476938;28;20475;-68
2023/05/25 11:11:02;;;;;;;2.60;2.08;;;;;;;;;;10494596;28;20032;-68
2023/05/25 11:16:16;;;;;;;3.13;2.10;;;;;;;;;;10474147;28;20024;-67
2023/05/25 11:21:41;;;;;;;2.00;1.80;;;;;;;;;;10486344;28;20551;-67
2023/05/25 11:26:54;;;;;;;1.98;1.80;;;;;;;;;;10493715;28;20032;-67
2023/05/25 11:31:55;;;;;;;2.75;2.25;;;;;;;;;;10495109;28;20248;-68
2023/05/25 11:36:57;;;;;;;3.15;2.10;;;;;;;;;;10493913;28;20243;-68
2023/05/25 11:42:03;;;;;;;2.92;1.80;;;;;;;;;;10494644;28;20109;-68
2023/05/25 11:47:08;;;;;;;1.95;1.77;;;;;;;;;;10489793;28;20052;-68
2023/05/25 11:52:09;;;;;;;5.45;2.20;;;;;;;;;;10492746;28;20395;-67
2023/05/25 11:57:23;;;;;;;2.90;2.25;;;;;;;;;;10468130;28;20025;-68
2023/05/25 12:02:23;;;;;;;5.50;2.42;;;;;;;;;;10486032;28;20376;-67
2023/05/25 12:07:25;;;;;;;3.10;2.35;;;;;;;;;;10475224;28;20040;-68
2023/05/25 12:12:25;;;;;;;4.15;2.30;;;;;;;;;;10488439;28;20024;-68
2023/05/25 12:17:26;;;;;;;3.27;2.53;;;;;;;;;;10486907;28;20483;-68
2023/05/25 12:22:26;;;;;;;4.87;2.30;;;;;;;;;;10492056;28;20462;-68
2023/05/25 12:27:27;;;;;;;4.00;2.25;;;;;;;;;;10491937;28;20503;-68
2023/05/25 12:32:27;;;;;;;4.57;2.53;;;;;;;;;;10486445;28;20487;-68
2023/05/25 12:37:27;;;;;;;6.67;3.00;;;;;;;;;;10474757;28;20457;-68
2023/05/25 12:42:29;;;;;;;3.80;2.60;;;;;;;;;;10480632;28;20523;-68
2023/05/25 12:47:31;;;;;;;3.08;2.60;;;;;;;;;;10486323;28;21153;-68
2023/05/25 12:52:35;;;;;;;3.65;2.47;;;;;;;;;;10491981;28;20360;-69
2023/05/25 12:57:35;;;;;;;6.22;2.83;;;;;;;;;;10488609;28;20051;-69
2023/05/25 13:02:36;;;;;;;6.73;2.80;;;;;;;;;;10485864;28;20081;-69
2023/05/25 13:07:36;;;;;;;6.43;3.07;;;;;;;;;;10492433;28;20522;-69
2023/05/25 13:12:37;;;;;;;8.53;3.00;;;;;;;;;;10483580;28;20505;-69
2023/05/25 13:17:40;;;;;;;8.17;3.37;;;;;;;;;;10485055;28;20462;-69
2023/05/25 13:22:43;;;;;;;10.38;3.55;;;;;;;;;;10488509;28;20479;-69
2023/05/25 13:27:47;;;;;;;18.83;3.28;;;;;;;;;;10489587;28;20111;-69
2023/05/25 13:32:47;;;;;;;20.42;4.05;;;;;;;;;;10472556;28;20032;-70
2023/05/25 13:37:48;;;;;;;22.70;3.17;;;;;;;;;;10491049;28;20024;-70
2023/05/25 13:42:49;;;;;;;11.02;3.22;;;;;;;;;;10490811;28;20547;-70
2023/05/25 13:47:49;;;;;;;18.17;3.45;;;;;;;;;;10487980;28;20028;-71
2023/05/25 13:52:49;;;;;;;77.73;5.90;;;;;;;;;;10488901;28;20033;-65
2023/05/25 13:57:53;;;;;;;94.73;6.13;;;;;;;;;;10489212;28;20464;-57
2023/05/25 14:02:53;;;;;;;42.20;4.60;;;;;;;;;;10481568;28;20331;-62
2023/05/25 14:07:54;;;;;;;50.58;5.45;;;;;;;;;;10485450;28;20260;-64
2023/05/25 14:12:55;;;;;;;16.80;4.15;;;;;;;;;;10483964;28;20031;-67
2023/05/25 14:17:55;;;;;;;19.27;3.50;;;;;;;;;;10488247;28;20025;-67
2023/05/25 14:22:56;;;;;;;19.63;4.35;;;;;;;;;;10488599;28;20021;-64
2023/05/25 14:27:56;;;;;;;16.75;3.58;;;;;;;;;;10481542;28;20028;-61
2023/05/25 14:32:57;;;;;;;9.68;3.05;;;;;;;;;;10485024;28;20036;-60
2023/05/25 14:37:57;;;;;;;20.80;3.85;;;;;;;;;;10487706;28;20074;-66
2023/05/25 14:42:58;;;;;;;5.75;3.38;;;;;;;;;;10498394;28;20040;-63
2023/05/25 14:47:59;;;;;;;11.10;3.20;;;;;;;;;;10497178;28;20036;-70
2023/05/25 14:52:59;;;;;;;12.65;3.75;;;;;;;;;;10495527;28;20062;-65
2023/05/25 14:58:00;;;;;;;15.98;4.20;;;;;;;;;;10496313;28;20039;-70
2023/05/25 15:03:00;;;;;;;5.13;3.90;;;;;;;;;;10497496;28;20035;-70
2023/05/25 15:08:01;;;;;;;16.88;3.67;;;;;;;;;;10490915;28;20499;-70
2023/05/25 15:13:01;;;;;;;15.23;4.32;;;;;;;;;;10490103;28;20214;-67
2023/05/25 15:18:02;;;;;;;8.27;3.60;;;;;;;;;;10487302;28;20055;-67
2023/05/25 15:23:03;;;;;;;7.40;3.38;;;;;;;;;;10494536;28;20020;-65
2023/05/25 15:28:03;;;;;;;12.23;3.75;;;;;;;;;;10473486;28;20094;-48
2023/05/25 15:33:04;;;;;;;11.52;3.70;;;;;;;;;;10484749;28;20017;-49
2023/05/25 15:38:05;;;;;;;9.32;3.72;;;;;;;;;;10474842;28;20029;-73
2023/05/25 15:43:05;;;;;;;8.57;3.53;;;;;;;;;;10495032;28;20113;-64
2023/05/25 15:48:08;;;;;;;6.22;3.60;;;;;;;;;;10489378;28;20033;-68
2023/05/25 15:53:09;;;;;;;9.07;3.50;;;;;;;;;;10472833;28;20033;-66
2023/05/25 15:58:10;;;;;;;7.07;3.67;;;;;;;;;;10471624;28;20025;-65
2023/05/25 16:03:10;;;;;;;4.13;3.15;;;;;;;;;;10492360;28;20028;-62
2023/05/25 16:08:12;;;;;;;7.47;3.38;;;;;;;;;;10488353;28;20074;-63
2023/05/25 16:13:13;;;;;;;9.40;3.38;;;;;;;;;;10493638;28;20029;-69
2023/05/25 16:18:15;;;;;;;4.32;3.08;;;;;;;;;;10488776;28;20024;-63
2023/05/25 16:23:15;;;;;;;7.07;3.33;;;;;;;;;;10489454;28;20047;-65
2023/05/25 16:28:16;;;;;;;12.57;4.75;;;;;;;;;;10486996;28;20024;-67
2023/05/25 16:33:17;;;;;;;4.07;3.25;;;;;;;;;;10484022;28;20024;-64
2023/05/25 16:38:18;;;;;;;8.30;3.20;;;;;;;;;;10481772;28;20029;-64
2023/05/25 16:43:18;;;;;;;5.05;3.40;;;;;;;;;;10492353;28;20345;-66
2023/05/25 16:48:19;;;;;;;6.22;3.55;;;;;;;;;;10491401;28;20039;-64
2023/05/25 16:53:20;;;;;;;12.57;4.22;;;;;;;;;;10487026;28;20028;-66
2023/05/25 16:58:22;;;;;;;8.55;4.10;;;;;;;;;;10490161;28;20032;-65
2023/05/25 17:03:23;;;;;;;4.15;3.75;;;;;;;;;;10487644;28;20535;-62
2023/05/25 17:08:24;;;;;;;6.40;4.45;;;;;;;;;;10490555;28;20059;-62
2023/05/25 17:13:24;;;;;;;5.50;4.45;;;;;;;;;;10491282;28;20411;-62
2023/05/25 17:18:25;;;;;;;9.38;5.13;;;;;;;;;;10490252;28;20036;-65
2023/05/25 17:23:26;;;;;;;6.43;4.43;;;;;;;;;;10489830;28;20040;-58
2023/05/25 17:28:27;;;;;;;7.75;4.35;;;;;;;;;;10490172;28;20384;-64
2023/05/25 17:33:28;;;;;;;6.78;4.25;;;;;;;;;;10489274;28;20028;-66
2023/05/25 17:38:28;;;;;;;11.05;5.10;;;;;;;;;;10489539;28;20043;-67
2023/05/25 17:43:29;;;;;;;13.48;5.43;;;;;;;;;;10486124;28;20098;-60
2023/05/25 17:48:29;;;;;;;10.55;5.45;;;;;;;;;;10488579;28;20494;-59
2023/05/25 17:53:30;;;;;;;13.07;5.05;;;;;;;;;;10459099;28;20479;-60
2023/05/25 17:58:31;;;;;;;13.05;5.30;;;;;;;;;;10489029;28;20362;-59
2023/05/25 18:03:31;;;;;;;10.00;5.72;;;;;;;;;;10500264;28;20036;-62
2023/05/25 18:08:32;;;;;;;8.32;5.88;;;;;;;;;;10491354;28;20024;-65
2023/05/25 18:13:33;;;;;;;13.60;5.25;;;;;;;;;;10488317;28;20100;-59
2023/05/25 18:18:33;;;;;;;10.63;4.80;;;;;;;;;;10470377;28;20028;-62
2023/05/25 18:23:34;;;;;;;14.27;4.70;;;;;;;;;;10487394;28;20050;-60
2023/05/25 18:28:34;;;;;;;7.53;4.30;;;;;;;;;;10488100;28;20036;-66
2023/05/25 18:33:35;;;;;;;6.30;4.30;;;;;;;;;;10484752;28;20039;-58
2023/05/25 18:38:36;;;;;;;6.72;4.03;;;;;;;;;;10482583;28;20089;-58
2023/05/25 18:43:36;;;;;;;9.55;3.83;;;;;;;;;;10483413;28;20036;-60
2023/05/25 18:48:37;;;;;;;10.43;4.70;;;;;;;;;;10479670;28;20028;-65
2023/05/25 18:53:38;;;;;;;6.60;3.95;;;;;;;;;;10475506;28;20028;-64
2023/05/25 18:58:39;;;;;;;7.45;3.95;;;;;;;;;;10483653;28;20127;-68
2023/05/25 19:03:39;;;;;;;8.95;3.90;;;;;;;;;;10477130;28;20052;-65
2023/05/25 19:08:40;;;;;;;16.33;4.50;;;;;;;;;;10478142;28;20483;-64
2023/05/25 19:13:41;;;;;;;6.18;3.88;;;;;;;;;;10476564;28;20042;-65
2023/05/25 19:18:41;;;;;;;7.50;3.75;;;;;;;;;;10481846;28;20040;-61
2023/05/25 19:23:43;;;;;;;8.82;3.58;;;;;;;;;;10484280;28;20036;-63
2023/05/25 19:28:44;;;;;;;13.23;4.05;;;;;;;;;;10491727;28;20040;-64
2023/05/25 19:33:44;;;;;;;4.57;3.85;;;;;;;;;;10490416;28;20043;-62
2023/05/25 19:38:45;;;;;;;11.30;3.95;;;;;;;;;;10491401;28;20048;-61
2023/05/25 19:43:46;;;;;;;5.55;3.90;;;;;;;;;;10480516;22;20583;-54
2023/05/25 19:48:47;;;;;;;5.65;3.55;;;;;;;;;;10444112;28;20033;-49
2023/05/25 19:53:49;;;;;;;6.60;3.88;;;;;;;;;;10460815;28;20044;-48
2023/05/25 19:58:50;;;;;;;6.30;4.00;;;;;;;;;;10480561;28;20554;-49
2023/05/25 20:03:50;;;;;;;6.18;3.92;;;;;;;;;;10474938;28;20025;-46
2023/05/25 20:08:51;;;;;;;5.38;4.50;;;;;;;;;;10477664;28;20029;-47
2023/05/25 20:13:54;;;;;;;5.53;4.05;;;;;;;;;;10479031;28;20036;-46
2023/05/25 20:18:54;;;;;;;8.27;4.45;;;;;;;;;;10479052;28;20372;-49
2023/05/25 20:23:55;;;;;;;4.97;3.85;;;;;;;;;;10479907;28;20033;-49
2023/05/25 20:28:56;;;;;;;9.68;3.95;;;;;;;;;;10461716;28;20044;-49
2023/05/25 20:33:56;;;;;;;5.35;4.25;;;;;;;;;;10471074;28;20364;-49
2023/05/25 20:38:57;;;;;;;6.25;3.95;;;;;;;;;;10475827;28;20040;-50
2023/05/25 20:43:58;;;;;;;7.57;4.32;;;;;;;;;;10472077;28;20399;-47
2023/05/25 20:48:59;;;;;;;7.03;4.38;;;;;;;;;;10486966;28;20032;-49
2023/05/25 20:53:59;;;;;;;6.55;4.93;;;;;;;;;;10465830;28;20488;-50
2023/05/25 20:59:00;;;;;;;8.07;4.93;;;;;;;;;;10478792;28;20055;-51
2023/05/25 21:04:01;;;;;;;7.75;4.95;;;;;;;;;;10472917;28;20047;-52
2023/05/25 21:09:02;;;;;;;6.72;4.88;;;;;;;;;;10475019;28;20021;-49
2023/05/25 21:14:05;;;;;;;7.18;5.10;;;;;;;;;;10474788;28;20086;-48
2023/05/25 21:19:05;;;;;;;8.57;5.80;;;;;;;;;;10470932;28;20028;-46
2023/05/25 21:24:06;;;;;;;9.18;5.15;;;;;;;;;;10466247;28;20037;-47
2023/05/25 21:29:06;;;;;;;7.90;6.05;;;;;;;;;;10467956;28;20081;-46
2023/05/25 21:34:07;;;;;;;11.07;6.07;;;;;;;;;;10475626;28;20074;-48
2023/05/25 21:39:08;;;;;;;11.40;6.47;;;;;;;;;;10464645;28;20480;-47
2023/05/25 21:44:09;;;;;;;12.32;5.88;;;;;;;;;;10474804;28;20280;-46
2023/05/25 21:49:09;;;;;;;11.13;6.53;;;;;;;;;;10469169;28;20384;-51
2023/05/25 21:54:10;;;;;;;9.18;6.32;;;;;;;;;;10474442;28;20033;-46
2023/05/25 21:59:10;;;;;;;8.27;6.20;;;;;;;;;;10474209;28;20036;-47
2023/05/25 22:04:11;;;;;;;10.20;6.70;;;;;;;;;;10475838;28;20040;-48
2023/05/25 22:09:11;;;;;;;13.15;6.53;;;;;;;;;;10465221;28;20029;-48
2023/05/25 22:14:12;;;;;;;11.40;6.38;;;;;;;;;;10446912;28;20032;-47
2023/05/25 22:19:13;;;;;;;11.65;6.05;;;;;;;;;;10449982;28;20498;-47
2023/05/25 22:24:13;;;;;;;12.50;6.10;;;;;;;;;;10470860;28;20020;-57
2023/05/25 22:29:14;;;;;;;6.63;5.35;;;;;;;;;;10461769;28;20024;-58
2023/05/25 22:34:15;;;;;;;11.60;5.90;;;;;;;;;;10462761;28;20060;-48
2023/05/25 22:39:16;;;;;;;8.55;5.80;;;;;;;;;;10469127;28;20056;-47
2023/05/25 22:44:16;;;;;;;9.18;5.68;;;;;;;;;;10467658;28;20519;-47
2023/05/25 22:49:17;;;;;;;6.72;5.40;;;;;;;;;;10463030;28;20507;-51
2023/05/25 22:54:18;;;;;;;14.23;6.25;;;;;;;;;;10464573;28;20029;-47
2023/05/25 22:59:18;;;;;;;8.80;5.22;;;;;;;;;;10477208;28;20029;-48
2023/05/25 23:04:19;;;;;;;8.38;5.47;;;;;;;;;;10482721;28;20032;-48
2023/05/25 23:09:20;;;;;;;9.75;5.55;;;;;;;;;;10489621;28;20043;-50
2023/05/25 23:14:20;;;;;;;9.43;5.55;;;;;;;;;;10480727;28;20418;-53
2023/05/25 23:19:22;;;;;;;6.47;5.28;;;;;;;;;;10479862;28;20253;-47
2023/05/25 23:24:23;;;;;;;10.52;5.68;;;;;;;;;;10487165;28;20031;-50
2023/05/25 23:29:23;;;;;;;10.15;5.18;;;;;;;;;;10485355;28;20051;-56
2023/05/25 23:34:24;;;;;;;6.32;5.20;;;;;;;;;;10473677;28;20033;-49
2023/05/25 23:39:25;;;;;;;7.75;5.10;;;;;;;;;;10481241;28;20059;-49
2023/05/25 23:44:26;;;;;;;6.78;4.82;;;;;;;;;;10484487;28;20051;-47
2023/05/25 23:49:26;;;;;;;5.82;4.93;;;;;;;;;;10483515;28;20032;-47
2023/05/25 23:54:27;;;;;;;4.63;4.18;;;;;;;;;;10478248;28;20016;-49
2023/05/25 23:59:27;;;;;;;8.52;4.40;;;;;;;;;;10487138;28;20047;-47
